Time;durP1;ratioP1;P1;durP2;ratioP2;P2;SDS_P1;SDS_P2;PMS_P1;PMS_P2;Temp;Humidity;BMP_temperature;BMP_pressure;BME280_temperature;BME280_humidity;BME280_pressure;Samples;Min_cycle;Max_cycle;Signal;HPM_P1;HPM_P2
2021/08/28 00:01:21;;;;;;;0.30;0.10;;;15.60;99.90;;;;;;5056787;28;20193;-64
2021/08/28 00:03:47;;;;;;;0.40;0.20;;;15.60;99.90;;;;;;5056248;28;20280;-64
2021/08/28 00:06:12;;;;;;;0.40;0.20;;;15.60;99.90;;;;;;5056590;28;20180;-64
2021/08/28 00:08:38;;;;;;;0.40;0.20;;;15.70;99.90;;;;;;5055686;28;20207;-64
2021/08/28 00:11:04;;;;;;;0.40;0.20;;;15.60;99.90;;;;;;5056564;28;20518;-64
2021/08/28 00:13:29;;;;;;;0.40;0.20;;;15.50;99.90;;;;;;5056689;28;20177;-64
2021/08/28 00:15:55;;;;;;;0.30;0.20;;;15.40;99.90;;;;;;5056589;28;20173;-64
2021/08/28 00:18:20;;;;;;;0.40;0.20;;;15.40;99.90;;;;;;5056291;28;20184;-64
2021/08/28 00:20:46;;;;;;;0.40;0.30;;;15.30;99.90;;;;;;5056464;28;20624;-64
2021/08/28 00:23:11;;;;;;;0.40;0.20;;;15.40;99.90;;;;;;5056413;28;20185;-64
2021/08/28 00:25:37;;;;;;;0.70;0.70;;;15.50;99.90;;;;;;5056423;28;20259;-64
2021/08/28 00:28:03;;;;;;;0.40;0.20;;;15.50;99.90;;;;;;5056360;28;20181;-64
2021/08/28 00:30:29;;;;;;;0.40;0.20;;;15.40;99.90;;;;;;5056058;28;20211;-64
2021/08/28 00:32:54;;;;;;;0.30;0.20;;;15.40;99.90;;;;;;5056281;28;20419;-64
2021/08/28 00:35:20;;;;;;;0.30;0.20;;;15.60;99.90;;;;;;5056336;28;20490;-64
2021/08/28 00:37:46;;;;;;;0.33;0.17;;;15.70;99.90;;;;;;5056133;28;20175;-64
2021/08/28 00:40:12;;;;;;;0.87;0.87;;;15.60;99.90;;;;;;5056043;28;20257;-64
2021/08/28 00:42:49;;;;;;;0.40;0.10;;;15.60;99.90;;;;;;5056137;28;20169;-64
2021/08/28 00:45:14;;;;;;;0.40;0.20;;;15.70;99.90;;;;;;5056106;28;20263;-64
2021/08/28 00:47:48;;;;;;;0.40;0.20;;;15.60;99.90;;;;;;5055940;28;20615;-64
2021/08/28 00:50:14;;;;;;;0.40;0.20;;;15.50;99.90;;;;;;5054711;28;20209;-64
2021/08/28 00:52:39;;;;;;;0.50;0.50;;;15.60;99.90;;;;;;5054931;28;20428;-64
2021/08/28 00:55:05;;;;;;;0.40;0.20;;;15.50;99.90;;;;;;5056375;28;20493;-64
2021/08/28 00:57:32;;;;;;;0.40;0.20;;;15.70;99.90;;;;;;5055513;28;20554;-64
2021/08/28 00:59:58;;;;;;;0.40;0.20;;;16.00;99.90;;;;;;5055627;28;20840;-64
2021/08/28 01:02:26;;;;;;;0.40;0.20;;;16.10;99.90;;;;;;5055806;28;20510;-64
2021/08/28 01:05:21;;;;;;;0.40;0.20;;;16.30;99.90;;;;;;5055779;28;20327;-64
2021/08/28 01:08:04;;;;;;;0.40;0.20;;;16.00;99.90;;;;;;5055132;28;20506;-64
2021/08/28 01:10:35;;;;;;;0.30;0.20;;;15.80;99.90;;;;;;5055315;28;20462;-64
2021/08/28 01:13:04;;;;;;;0.30;0.20;;;15.90;99.90;;;;;;5055893;28;20741;-65
2021/08/28 01:15:30;;;;;;;0.30;0.20;;;16.10;99.90;;;;;;5055411;28;20432;-64
2021/08/28 01:17:56;;;;;;;0.30;0.20;;;16.50;99.90;;;;;;5055154;28;20550;-64
2021/08/28 01:20:38;;;;;;;0.40;0.20;;;16.40;99.90;;;;;;5055085;28;20450;-64
2021/08/28 01:23:05;;;;;;;0.30;0.10;;;16.50;99.90;;;;;;5055277;28;20457;-64
2021/08/28 01:25:31;;;;;;;0.30;0.10;;;16.70;99.90;;;;;;5055204;28;20439;-64
2021/08/28 01:28:03;;;;;;;0.40;0.23;;;16.70;99.90;;;;;;5055436;28;20427;-64
2021/08/28 01:30:29;;;;;;;0.40;0.20;;;16.60;99.90;;;;;;5055066;28;20266;-64
2021/08/28 01:32:55;;;;;;;0.30;0.20;;;16.70;99.90;;;;;;5055056;28;20973;-66
2021/08/28 01:35:22;;;;;;;0.30;0.20;;;16.80;99.90;;;;;;5055163;28;20180;-66
2021/08/28 01:37:49;;;;;;;0.40;0.23;;;16.70;99.90;;;;;;5054124;28;20177;-66
2021/08/28 01:40:16;;;;;;;0.50;0.40;;;16.80;99.90;;;;;;5055034;28;20516;-66
2021/08/28 01:42:43;;;;;;;0.40;0.20;;;16.70;99.90;;;;;;5054934;28;20423;-67
2021/08/28 01:45:13;;;;;;;0.40;0.30;;;16.50;99.90;;;;;;5055003;28;20426;-66
2021/08/28 01:47:40;;;;;;;0.40;0.20;;;16.50;99.90;;;;;;5054826;28;20415;-66
2021/08/28 01:50:07;;;;;;;0.40;0.20;;;16.60;99.90;;;;;;5053605;28;20263;-67
2021/08/28 01:52:32;;;;;;;0.30;0.10;;;16.80;99.90;;;;;;5054888;28;20796;-66
2021/08/28 01:54:58;;;;;;;0.30;0.10;;;16.80;99.90;;;;;;5054792;28;20492;-66
2021/08/28 01:57:24;;;;;;;0.40;0.20;;;17.00;99.90;;;;;;5054778;28;20231;-66
2021/08/28 01:59:50;;;;;;;0.40;0.20;;;17.10;99.90;;;;;;5054700;28;20208;-66
2021/08/28 02:02:15;;;;;;;0.40;0.20;;;16.90;99.90;;;;;;5054888;28;20618;-66
2021/08/28 02:04:41;;;;;;;0.30;0.20;;;16.80;99.90;;;;;;5054758;28;20177;-67
2021/08/28 02:07:32;;;;;;;0.30;0.10;;;16.90;99.90;;;;;;5054553;28;20177;-66
2021/08/28 02:10:10;;;;;;;0.37;0.20;;;16.90;99.90;;;;;;5054379;28;20966;-66
2021/08/28 02:12:50;;;;;;;0.97;0.87;;;16.90;99.90;;;;;;5054522;28;20821;-66
2021/08/28 02:15:21;;;;;;;0.40;0.20;;;16.90;99.90;;;;;;5054502;28;20453;-67
2021/08/28 02:18:00;;;;;;;0.40;0.20;;;16.80;99.90;;;;;;5054288;28;20746;-66
2021/08/28 02:20:30;;;;;;;0.40;0.20;;;16.80;99.90;;;;;;5053551;28;20434;-66
2021/08/28 02:23:00;;;;;;;0.40;0.30;;;16.80;99.90;;;;;;5054198;28;20423;-66
2021/08/28 02:25:31;;;;;;;0.40;0.20;;;16.50;99.90;;;;;;5053320;28;20442;-66
2021/08/28 02:28:04;;;;;;;0.40;0.20;;;16.50;99.90;;;;;;5054214;28;20931;-66
2021/08/28 02:30:31;;;;;;;0.30;0.10;;;16.50;99.90;;;;;;5053845;28;20489;-66
2021/08/28 02:32:58;;;;;;;0.70;0.70;;;16.30;99.90;;;;;;5054021;28;20480;-67
2021/08/28 02:35:26;;;;;;;0.30;0.20;;;16.20;99.90;;;;;;5053067;28;20438;-66
2021/08/28 02:37:51;;;;;;;0.30;0.20;;;16.30;99.90;;;;;;5053227;28;20181;-67
2021/08/28 02:40:21;;;;;;;0.40;0.20;;;16.20;99.90;;;;;;5053120;28;20185;-66
2021/08/28 02:42:47;;;;;;;0.40;0.20;;;16.30;99.90;;;;;;5052938;28;20204;-67
2021/08/28 02:45:19;;;;;;;0.30;0.20;;;16.30;99.90;;;;;;5053897;28;20256;-66
2021/08/28 02:47:46;;;;;;;0.40;0.20;;;16.50;99.90;;;;;;5053574;28;20560;-66
2021/08/28 02:50:15;;;;;;;0.40;0.20;;;16.60;99.90;;;;;;5053678;28;20208;-66
2021/08/28 02:52:43;;;;;;;0.30;0.20;;;16.50;99.90;;;;;;5053783;28;20618;-66
2021/08/28 02:55:10;;;;;;;0.30;0.20;;;16.50;99.90;;;;;;5053544;28;20506;-66
2021/08/28 02:57:38;;;;;;;0.50;0.50;;;16.40;99.90;;;;;;5052633;28;20781;-66
2021/08/28 03:00:05;;;;;;;0.40;0.20;;;16.50;99.90;;;;;;5053502;28;20223;-66
2021/08/28 03:02:31;;;;;;;0.30;0.20;;;16.50;99.90;;;;;;5053525;28;20427;-66
2021/08/28 03:04:57;;;;;;;0.30;0.20;;;16.50;99.90;;;;;;5053644;28;20230;-67
2021/08/28 03:07:23;;;;;;;0.40;0.20;;;16.60;99.90;;;;;;5053648;28;20485;-66
2021/08/28 03:09:50;;;;;;;0.40;0.20;;;16.60;99.90;;;;;;5053448;28;20467;-66
2021/08/28 03:12:16;;;;;;;0.30;0.20;;;16.70;99.90;;;;;;5052541;28;20188;-66
2021/08/28 03:14:41;;;;;;;0.40;0.20;;;16.60;99.90;;;;;;5053469;28;20415;-66
2021/08/28 03:17:11;;;;;;;0.93;0.93;;;16.60;99.90;;;;;;5053457;28;20406;-66
2021/08/28 03:19:39;;;;;;;0.30;0.20;;;16.40;99.90;;;;;;5053509;28;20173;-66
2021/08/28 03:22:08;;;;;;;0.30;0.20;;;16.50;99.90;;;;;;5053435;28;20419;-67
2021/08/28 03:24:34;;;;;;;0.40;0.20;;;16.40;99.90;;;;;;5053495;28;20181;-66
2021/08/28 03:27:01;;;;;;;0.40;0.20;;;16.30;99.90;;;;;;5053851;28;20185;-66
2021/08/28 03:29:28;;;;;;;0.40;0.20;;;16.20;99.90;;;;;;5053091;28;20580;-66
2021/08/28 03:31:55;;;;;;;0.30;0.10;;;16.30;99.90;;;;;;5054987;28;20423;-66
2021/08/28 03:34:21;;;;;;;0.30;0.20;;;16.50;99.90;;;;;;5057444;28;20751;-65
2021/08/28 03:36:47;;;;;;;0.30;0.20;;;16.50;99.90;;;;;;5056343;28;20613;-64
2021/08/28 03:39:14;;;;;;;0.40;0.20;;;16.40;99.90;;;;;;5057246;28;20431;-64
2021/08/28 03:41:40;;;;;;;0.30;0.20;;;16.40;99.90;;;;;;5057408;28;20181;-64
2021/08/28 03:44:11;;;;;;;0.30;0.20;;;16.50;99.90;;;;;;5057235;28;20192;-64
2021/08/28 03:46:37;;;;;;;0.30;0.20;;;16.60;99.90;;;;;;5057352;28;20185;-64
2021/08/28 03:49:03;;;;;;;0.40;0.20;;;16.60;99.90;;;;;;5057248;28;20227;-64
2021/08/28 03:51:28;;;;;;;0.37;0.20;;;16.80;99.90;;;;;;5057091;28;20423;-64
2021/08/28 03:53:54;;;;;;;0.33;0.17;;;16.60;99.90;;;;;;5057182;28;20177;-64
2021/08/28 03:56:19;;;;;;;0.30;0.20;;;16.70;99.90;;;;;;5056915;28;20180;-65
2021/08/28 03:58:45;;;;;;;0.30;0.20;;;16.60;99.90;;;;;;5056639;28;20687;-66
2021/08/28 04:01:10;;;;;;;0.30;0.10;;;16.60;99.90;;;;;;5056931;28;20630;-64
2021/08/28 04:03:36;;;;;;;0.30;0.20;;;16.30;99.90;;;;;;5056865;28;20184;-64
2021/08/28 04:06:01;;;;;;;0.80;0.80;;;15.90;99.90;;;;;;5056738;28;20173;-64
2021/08/28 04:08:27;;;;;;;0.33;0.20;;;15.80;99.90;;;;;;5056554;28;20618;-64
2021/08/28 04:10:53;;;;;;;0.40;0.20;;;15.70;99.90;;;;;;5056783;28;20291;-65
2021/08/28 04:13:18;;;;;;;1.13;0.87;;;16.00;99.90;;;;;;5056599;28;20184;-66
2021/08/28 04:15:44;;;;;;;0.40;0.20;;;16.30;99.90;;;;;;5056531;28;20268;-66
2021/08/28 04:18:09;;;;;;;0.40;0.20;;;16.50;99.90;;;;;;5056766;28;20181;-64
2021/08/28 04:20:35;;;;;;;0.40;0.20;;;16.40;99.90;;;;;;5056745;28;20191;-63
2021/08/28 04:23:01;;;;;;;0.37;0.20;;;16.40;99.90;;;;;;5056734;28;20177;-66
2021/08/28 04:25:26;;;;;;;0.40;0.20;;;16.30;99.90;;;;;;5056431;28;20677;-66
2021/08/28 04:27:52;;;;;;;0.40;0.20;;;16.30;99.90;;;;;;5056299;28;20200;-66
2021/08/28 04:30:18;;;;;;;0.40;0.20;;;16.40;99.90;;;;;;5056260;28;20467;-64
2021/08/28 04:32:44;;;;;;;0.30;0.20;;;16.30;99.90;;;;;;5056348;28;20420;-64
2021/08/28 04:35:10;;;;;;;0.40;0.20;;;15.90;99.90;;;;;;5056347;28;20426;-64
2021/08/28 04:37:36;;;;;;;1.43;0.50;;;16.00;99.90;;;;;;5056152;28;20177;-66
2021/08/28 04:40:02;;;;;;;0.40;0.20;;;15.90;99.90;;;;;;5056013;28;20580;-66
2021/08/28 04:42:28;;;;;;;0.40;0.20;;;15.60;99.90;;;;;;5055332;28;20654;-64
2021/08/28 04:44:54;;;;;;;0.30;0.20;;;15.30;99.90;;;;;;5056024;28;20430;-63
2021/08/28 04:47:20;;;;;;;0.40;0.20;;;15.40;99.90;;;;;;5055888;28;20176;-64
2021/08/28 04:49:47;;;;;;;0.30;0.20;;;15.50;99.90;;;;;;5056861;28;20473;-63
2021/08/28 04:52:12;;;;;;;0.40;0.20;;;15.50;99.90;;;;;;5056787;28;20188;-63
2021/08/28 04:54:38;;;;;;;0.30;0.20;;;15.80;99.90;;;;;;5056078;28;20185;-66
2021/08/28 04:57:03;;;;;;;0.30;0.20;;;15.80;99.90;;;;;;5055616;28;20199;-66
2021/08/28 04:59:29;;;;;;;0.30;0.20;;;15.80;99.90;;;;;;5055606;28;20250;-66
2021/08/28 05:01:55;;;;;;;0.60;0.60;;;15.80;99.90;;;;;;5056129;28;20181;-64
2021/08/28 05:04:21;;;;;;;0.30;0.20;;;15.40;99.90;;;;;;5051505;28;20573;-64
2021/08/28 05:06:46;;;;;;;0.30;0.20;;;15.60;99.90;;;;;;5039597;28;20489;-63
2021/08/28 05:09:12;;;;;;;0.30;0.20;;;15.60;99.90;;;;;;5036123;28;20209;-64
2021/08/28 05:11:38;;;;;;;0.40;0.20;;;15.70;99.90;;;;;;5035812;28;20483;-66
2021/08/28 05:14:04;;;;;;;0.45;0.32;;;15.50;99.90;;;;;;5038266;28;20181;-63
2021/08/28 05:16:29;;;;;;;0.30;0.10;;;15.30;99.90;;;;;;5039511;28;20185;-65
2021/08/28 05:18:55;;;;;;;1.63;1.50;;;15.50;99.90;;;;;;5034220;28;20671;-65
2021/08/28 05:21:20;;;;;;;0.30;0.20;;;15.70;99.90;;;;;;5034550;28;20212;-65
2021/08/28 05:23:46;;;;;;;0.30;0.10;;;15.70;99.90;;;;;;5035406;28;20182;-65
2021/08/28 05:26:12;;;;;;;0.93;0.93;;;15.80;99.90;;;;;;5035317;28;20174;-66
2021/08/28 05:28:37;;;;;;;0.30;0.10;;;15.70;99.90;;;;;;5035038;28;20186;-65
2021/08/28 05:31:03;;;;;;;0.30;0.20;;;15.60;99.90;;;;;;5035254;28;20213;-64
2021/08/28 05:33:29;;;;;;;0.40;0.20;;;15.70;99.90;;;;;;5034177;28;20631;-66
2021/08/28 05:35:54;;;;;;;1.03;0.50;;;15.40;99.90;;;;;;5035124;28;20436;-66
2021/08/28 05:38:20;;;;;;;0.30;0.20;;;15.10;99.90;;;;;;5034750;28;20177;-64
2021/08/28 05:40:46;;;;;;;0.40;0.30;;;15.20;99.90;;;;;;5034937;28;20402;-64
2021/08/28 05:43:11;;;;;;;0.93;0.63;;;15.30;99.90;;;;;;5034886;28;20201;-64
2021/08/28 05:45:37;;;;;;;0.40;0.20;;;15.40;99.90;;;;;;5042264;28;20322;-67
2021/08/28 05:48:02;;;;;;;0.37;0.20;;;15.50;99.90;;;;;;5055010;28;20276;-66
2021/08/28 05:50:28;;;;;;;0.40;0.20;;;15.70;99.90;;;;;;5048476;28;20208;-66
2021/08/28 05:52:54;;;;;;;0.30;0.20;;;15.60;99.90;;;;;;5034664;28;20805;-66
2021/08/28 05:55:19;;;;;;;2.40;1.13;;;15.80;99.90;;;;;;5034503;28;20193;-64
2021/08/28 05:57:45;;;;;;;0.40;0.20;;;15.90;99.90;;;;;;5034726;28;20204;-64
2021/08/28 06:00:11;;;;;;;0.40;0.30;;;15.90;99.90;;;;;;5034658;28;20271;-64
2021/08/28 06:02:37;;;;;;;0.33;0.17;;;16.10;99.90;;;;;;5034576;28;20218;-65
2021/08/28 06:05:08;;;;;;;0.33;0.20;;;16.10;99.90;;;;;;5034698;28;20771;-64
2021/08/28 06:07:34;;;;;;;0.80;0.80;;;16.00;99.90;;;;;;5034350;28;20446;-64
2021/08/28 06:10:00;;;;;;;0.50;0.40;;;16.00;99.90;;;;;;5034191;28;20197;-63
2021/08/28 06:12:27;;;;;;;1.02;0.85;;;15.80;99.90;;;;;;5034354;28;20815;-63
2021/08/28 06:14:52;;;;;;;2.10;2.00;;;15.60;99.90;;;;;;5034283;28;20533;-63
2021/08/28 06:17:18;;;;;;;3.07;1.60;;;15.60;99.90;;;;;;5034475;28;20189;-63
2021/08/28 06:19:43;;;;;;;3.97;3.67;;;15.70;99.90;;;;;;5034298;28;20181;-63
2021/08/28 06:22:09;;;;;;;0.97;0.97;;;15.60;99.90;;;;;;5034260;28;20603;-63
2021/08/28 06:24:34;;;;;;;1.23;1.23;;;15.60;99.90;;;;;;5033965;28;20575;-63
2021/08/28 06:27:00;;;;;;;1.63;1.40;;;15.60;99.90;;;;;;5033936;28;20177;-63
2021/08/28 06:29:25;;;;;;;0.40;0.20;;;15.60;99.90;;;;;;5033941;28;20201;-63
2021/08/28 06:31:51;;;;;;;2.33;2.23;;;15.80;99.90;;;;;;5034232;28;20212;-63
2021/08/28 06:34:17;;;;;;;2.27;2.17;;;15.70;99.90;;;;;;5034014;28;20174;-63
2021/08/28 06:36:42;;;;;;;0.73;0.73;;;15.60;99.90;;;;;;5033921;28;20170;-62
2021/08/28 06:39:08;;;;;;;1.03;1.03;;;15.60;99.90;;;;;;5034253;28;20610;-62
2021/08/28 06:41:33;;;;;;;0.87;0.87;;;15.70;99.90;;;;;;5034015;28;20192;-62
2021/08/28 06:43:59;;;;;;;5.30;2.47;;;15.90;99.90;;;;;;5032897;28;20181;-62
2021/08/28 06:46:26;;;;;;;0.40;0.20;;;15.90;99.90;;;;;;5034016;28;20182;-63
2021/08/28 06:48:52;;;;;;;1.20;1.20;;;15.80;99.90;;;;;;5033714;28;20208;-63
2021/08/28 06:51:18;;;;;;;0.40;0.30;;;15.80;99.90;;;;;;5033978;28;20432;-63
2021/08/28 06:53:43;;;;;;;0.40;0.40;;;15.90;99.90;;;;;;5033710;28;20892;-63
2021/08/28 06:56:09;;;;;;;1.57;1.43;;;15.70;99.90;;;;;;5033769;28;20424;-63
2021/08/28 06:58:34;;;;;;;1.03;0.93;;;15.70;99.90;;;;;;5032542;28;20591;-63
2021/08/28 07:01:00;;;;;;;0.70;0.70;;;15.80;99.90;;;;;;5033596;28;20509;-63
2021/08/28 07:03:28;;;;;;;0.40;0.20;;;15.80;99.90;;;;;;5032629;28;20178;-63
2021/08/28 07:05:54;;;;;;;2.77;2.10;;;15.80;99.90;;;;;;5033503;28;20522;-65
2021/08/28 07:08:19;;;;;;;0.67;0.67;;;15.90;99.90;;;;;;5033263;28;20435;-65
2021/08/28 07:10:46;;;;;;;2.93;2.50;;;16.00;99.90;;;;;;5033481;28;21050;-65
2021/08/28 07:13:12;;;;;;;1.83;0.67;;;15.80;99.90;;;;;;5033562;28;20497;-65
2021/08/28 07:15:37;;;;;;;0.90;0.90;;;15.90;99.90;;;;;;5033632;28;20424;-65
2021/08/28 07:18:03;;;;;;;0.40;0.33;;;15.80;99.90;;;;;;5032841;28;20239;-66
2021/08/28 07:20:29;;;;;;;0.93;0.93;;;15.90;99.90;;;;;;5033443;28;20173;-63
2021/08/28 07:22:55;;;;;;;1.70;1.23;;;16.00;99.90;;;;;;5033298;28;20446;-63
2021/08/28 07:25:20;;;;;;;2.83;1.43;;;16.20;99.90;;;;;;5032664;28;20185;-63
2021/08/28 07:27:47;;;;;;;1.90;1.80;;;16.10;99.90;;;;;;5033557;28;20906;-63
2021/08/28 07:30:12;;;;;;;1.33;0.67;;;16.20;99.90;;;;;;5033311;28;20205;-63
2021/08/28 07:32:38;;;;;;;0.63;0.60;;;16.10;99.90;;;;;;5033295;28;20723;-63
2021/08/28 07:35:05;;;;;;;1.03;0.73;;;16.10;99.90;;;;;;5033388;28;20455;-63
2021/08/28 07:37:31;;;;;;;1.13;1.13;;;16.30;99.90;;;;;;5032894;28;20183;-63
2021/08/28 07:39:58;;;;;;;1.27;1.17;;;16.40;99.90;;;;;;5033203;28;20420;-63
2021/08/28 07:42:29;;;;;;;1.03;0.87;;;16.30;99.90;;;;;;5033833;28;20185;-64
2021/08/28 07:44:55;;;;;;;1.73;1.43;;;16.10;99.90;;;;;;5033292;28;20440;-64
2021/08/28 07:47:21;;;;;;;0.97;0.37;;;16.00;99.90;;;;;;5033114;28;20436;-64
2021/08/28 07:49:46;;;;;;;0.47;0.40;;;16.10;99.90;;;;;;5032890;28;20300;-63
2021/08/28 07:52:14;;;;;;;1.57;1.30;;;16.10;99.90;;;;;;5033125;28;20202;-63
2021/08/28 07:54:39;;;;;;;2.27;2.17;;;16.10;99.90;;;;;;5033118;28;20239;-62
2021/08/28 07:57:05;;;;;;;0.97;0.97;;;16.20;99.90;;;;;;5032927;28;20420;-63
2021/08/28 07:59:31;;;;;;;1.07;1.07;;;16.20;99.90;;;;;;5033039;28;20181;-63
2021/08/28 08:01:56;;;;;;;1.37;0.57;;;16.10;99.90;;;;;;5032177;28;20733;-63
2021/08/28 08:04:22;;;;;;;0.63;0.63;;;16.00;99.90;;;;;;5033478;28;20189;-63
2021/08/28 08:06:51;;;;;;;1.33;1.23;;;16.10;99.90;;;;;;5033085;28;20480;-66
2021/08/28 08:09:16;;;;;;;2.63;0.90;;;16.30;99.90;;;;;;5032777;28;20205;-63
2021/08/28 08:11:42;;;;;;;0.50;0.30;;;16.30;99.90;;;;;;5031925;28;20595;-69
2021/08/28 08:14:07;;;;;;;1.10;0.97;;;16.60;99.90;;;;;;5051612;28;20185;-69
2021/08/28 08:16:33;;;;;;;3.23;1.90;;;16.40;99.90;;;;;;5052692;28;20455;-66
2021/08/28 08:18:58;;;;;;;0.97;0.97;;;16.30;99.90;;;;;;5054125;28;20475;-66
2021/08/28 08:21:24;;;;;;;2.30;1.43;;;16.50;99.90;;;;;;5056315;28;20278;-66
2021/08/28 08:23:50;;;;;;;1.23;1.07;;;16.60;99.90;;;;;;5055316;28;20242;-66
2021/08/28 08:26:15;;;;;;;0.60;0.50;;;16.60;99.90;;;;;;5056272;28;20755;-66
2021/08/28 08:28:41;;;;;;;1.63;0.60;;;17.00;99.90;;;;;;5056121;28;20177;-66
2021/08/28 08:31:07;;;;;;;0.50;0.40;;;17.20;99.90;;;;;;5056177;28;20205;-66
2021/08/28 08:33:32;;;;;;;1.80;1.23;;;17.50;99.90;;;;;;5056195;28;20165;-66
2021/08/28 08:35:58;;;;;;;0.40;0.20;;;17.20;99.90;;;;;;5056069;28;20203;-66
2021/08/28 08:38:23;;;;;;;1.90;1.20;;;16.80;99.90;;;;;;5054781;28;20503;-66
2021/08/28 08:40:49;;;;;;;0.40;0.20;;;16.70;99.90;;;;;;5056138;28;20187;-66
2021/08/28 08:43:15;;;;;;;0.40;0.20;;;16.70;99.90;;;;;;5056035;28;20203;-66
2021/08/28 08:45:42;;;;;;;0.97;0.80;;;16.80;99.90;;;;;;5056067;28;20439;-69
2021/08/28 08:48:09;;;;;;;1.60;1.50;;;17.30;99.90;;;;;;5055525;28;20445;-65
2021/08/28 08:50:35;;;;;;;0.63;0.47;;;17.10;99.90;;;;;;5051716;28;20463;-68
2021/08/28 08:53:03;;;;;;;9.57;1.73;;;16.80;99.90;;;;;;5044715;28;20493;-68
2021/08/28 08:55:30;;;;;;;1.30;1.27;;;16.80;99.90;;;;;;5043534;28;20423;-68
2021/08/28 08:57:57;;;;;;;2.10;0.67;;;16.80;99.90;;;;;;5046118;28;20458;-64
2021/08/28 09:00:22;;;;;;;1.23;1.13;;;16.70;99.90;;;;;;5050421;28;20435;-64
2021/08/28 09:02:48;;;;;;;0.40;0.20;;;16.80;99.90;;;;;;5042346;28;20432;-64
2021/08/28 09:05:13;;;;;;;0.40;0.20;;;16.80;99.90;;;;;;5035769;28;20528;-64
2021/08/28 09:07:39;;;;;;;0.57;0.30;;;16.80;99.90;;;;;;5035417;28;20231;-64
2021/08/28 09:10:05;;;;;;;0.40;0.20;;;16.90;99.90;;;;;;5035258;28;20205;-64
2021/08/28 09:12:39;;;;;;;0.43;0.27;;;16.80;99.90;;;;;;5043420;28;20176;-67
2021/08/28 09:15:08;;;;;;;0.97;0.70;;;17.00;99.90;;;;;;5055206;28;20420;-67
2021/08/28 09:17:34;;;;;;;0.40;0.20;;;17.00;99.90;;;;;;5047056;28;20432;-67
2021/08/28 09:20:02;;;;;;;0.70;0.50;;;17.60;99.90;;;;;;5044858;28;20454;-68
2021/08/28 09:22:30;;;;;;;0.80;0.60;;;17.70;99.90;;;;;;5047905;28;20527;-68
2021/08/28 09:25:03;;;;;;;7.50;2.07;;;17.90;99.90;;;;;;5043603;28;20446;-67
2021/08/28 09:27:32;;;;;;;0.40;0.20;;;17.70;99.90;;;;;;5043923;28;20442;-68
2021/08/28 09:29:59;;;;;;;0.40;0.20;;;17.90;99.90;;;;;;5044727;28;20947;-67
2021/08/28 09:32:24;;;;;;;0.60;0.43;;;18.10;99.90;;;;;;5051880;28;20428;-63
2021/08/28 09:34:50;;;;;;;0.97;0.73;;;18.60;99.90;;;;;;5046249;28;20432;-67
2021/08/28 09:37:15;;;;;;;0.40;0.10;;;18.10;99.90;;;;;;5045357;28;20304;-69
2021/08/28 09:39:45;;;;;;;0.40;0.20;;;17.80;99.90;;;;;;5043441;28;20201;-68
2021/08/28 09:42:20;;;;;;;4.40;4.20;;;18.10;99.90;;;;;;5044664;28;20170;-68
2021/08/28 09:44:46;;;;;;;0.67;0.30;;;17.80;99.90;;;;;;5043930;28;20493;-70
2021/08/28 09:47:17;;;;;;;0.60;0.40;;;18.40;99.90;;;;;;5043953;28;20435;-71
2021/08/28 09:49:46;;;;;;;0.50;0.43;;;18.70;99.90;;;;;;5042481;28;20542;-70
2021/08/28 09:52:17;;;;;;;0.70;0.40;;;18.60;99.90;;;;;;5043133;28;20481;-71
2021/08/28 09:54:42;;;;;;;0.50;0.40;;;18.00;99.90;;;;;;5043303;28;20420;-70
2021/08/28 09:57:09;;;;;;;0.47;0.20;;;17.60;99.90;;;;;;5044131;28;20430;-70
2021/08/28 09:59:34;;;;;;;0.50;0.30;;;17.90;99.90;;;;;;5044436;28;20188;-70
2021/08/28 10:02:08;;;;;;;2.00;1.80;;;17.80;99.90;;;;;;5043471;28;20435;-69
2021/08/28 10:04:53;;;;;;;0.40;0.20;;;17.40;99.90;;;;;;5048947;28;20188;-69
2021/08/28 10:07:21;;;;;;;0.50;0.30;;;17.50;99.90;;;;;;5045090;28;20429;-68
2021/08/28 10:09:51;;;;;;;0.60;0.40;;;17.70;99.90;;;;;;5033864;28;20471;-68
2021/08/28 10:12:19;;;;;;;0.40;0.20;;;17.70;99.90;;;;;;5045659;28;20436;-70
2021/08/28 10:14:48;;;;;;;0.40;0.20;;;18.30;99.90;;;;;;5045199;28;20458;-68
2021/08/28 10:17:19;;;;;;;0.53;0.37;;;18.10;99.90;;;;;;5044192;28;20427;-71
2021/08/28 10:19:49;;;;;;;0.53;0.30;;;18.20;99.90;;;;;;5049549;28;20451;-70
2021/08/28 10:22:19;;;;;;;0.40;0.20;;;18.10;99.90;;;;;;5054530;28;20474;-73
2021/08/28 10:24:47;;;;;;;2.80;1.60;;;18.30;99.90;;;;;;5034005;28;20442;-69
2021/08/28 10:27:13;;;;;;;0.40;0.20;;;18.80;99.90;;;;;;5044034;28;20438;-69
2021/08/28 10:29:38;;;;;;;0.60;0.53;;;18.40;99.90;;;;;;5073474;28;20524;-70
2021/08/28 10:32:05;;;;;;;4.47;0.60;;;18.30;99.90;;;;;;5066297;28;20821;-71
2021/08/28 10:34:32;;;;;;;0.90;0.83;;;17.80;99.90;;;;;;5041307;28;20181;-71
2021/08/28 10:36:58;;;;;;;0.50;0.20;;;17.30;99.90;;;;;;5057025;28;20427;-68
2021/08/28 10:39:24;;;;;;;0.47;0.20;;;17.30;99.90;;;;;;5052292;28;20771;-66
2021/08/28 10:41:51;;;;;;;1.87;0.80;;;17.20;99.90;;;;;;5051940;28;20249;-66
2021/08/28 10:44:17;;;;;;;0.40;0.20;;;17.10;99.90;;;;;;5053437;28;20230;-66
2021/08/28 10:46:42;;;;;;;0.40;0.20;;;17.20;99.90;;;;;;5053723;28;20459;-66
2021/08/28 10:49:10;;;;;;;0.40;0.20;;;17.30;99.90;;;;;;5048462;28;20174;-72
2021/08/28 10:51:39;;;;;;;0.40;0.17;;;17.50;99.90;;;;;;5033799;28;20185;-73
2021/08/28 10:54:11;;;;;;;0.60;0.60;;;17.90;99.90;;;;;;5064240;28;20529;-75
2021/08/28 10:56:45;;;;;;;1.07;0.97;;;17.90;99.90;;;;;;5072363;28;20457;-75
2021/08/28 10:59:32;;;;;;;1.03;0.43;;;18.00;99.90;;;;;;5069942;28;20457;-72
2021/08/28 11:02:06;;;;;;;0.40;0.10;;;18.20;99.90;;;;;;5052330;28;20910;-72
2021/08/28 11:04:46;;;;;;;0.60;0.40;;;18.20;99.90;;;;;;5049305;28;20537;-74
2021/08/28 11:07:39;;;;;;;0.40;0.20;;;18.00;99.90;;;;;;5040727;28;20438;-73
2021/08/28 11:10:19;;;;;;;0.70;0.37;;;17.60;99.90;;;;;;5030829;28;20506;-72
2021/08/28 11:12:55;;;;;;;1.60;0.60;;;17.70;99.90;;;;;;5051404;28;20481;-68
2021/08/28 11:15:24;;;;;;;1.00;0.60;;;18.10;99.90;;;;;;5045908;28;20419;-70
2021/08/28 11:17:57;;;;;;;0.67;0.30;;;17.80;99.90;;;;;;5051855;28;20426;-70
2021/08/28 11:20:27;;;;;;;0.60;0.43;;;18.00;99.90;;;;;;5052128;28;20916;-66
2021/08/28 11:22:53;;;;;;;0.40;0.27;;;17.50;99.90;;;;;;5053419;28;20498;-71
2021/08/28 11:25:24;;;;;;;0.60;0.30;;;17.00;99.90;;;;;;5043615;28;20423;-68
2021/08/28 11:27:54;;;;;;;1.37;0.63;;;16.80;99.90;;;;;;5052537;28;20427;-69
2021/08/28 11:30:52;;;;;;;0.40;0.20;;;16.70;99.90;;;;;;5052733;28;20558;-69
2021/08/28 11:33:33;;;;;;;0.40;0.10;;;16.90;99.90;;;;;;5053044;28;20488;-71
2021/08/28 11:36:20;;;;;;;0.50;0.40;;;17.10;99.90;;;;;;5052633;28;20514;-72
2021/08/28 11:38:54;;;;;;;0.40;0.20;;;17.30;99.90;;;;;;5047862;28;20470;-67
2021/08/28 11:41:22;;;;;;;0.57;0.40;;;17.60;99.90;;;;;;5048889;28;20531;-70
2021/08/28 11:43:49;;;;;;;0.40;0.20;;;17.70;99.90;;;;;;5052999;28;20446;-68
2021/08/28 11:46:18;;;;;;;1.50;0.53;;;17.80;99.90;;;;;;5052705;28;20424;-68
2021/08/28 11:48:47;;;;;;;0.80;0.50;;;17.70;99.90;;;;;;5052478;28;20437;-68
2021/08/28 11:51:16;;;;;;;0.43;0.23;;;17.40;99.90;;;;;;5052474;28;20474;-69
2021/08/28 11:53:43;;;;;;;0.40;0.20;;;17.20;99.90;;;;;;5055772;28;20892;-69
2021/08/28 11:56:15;;;;;;;0.50;0.40;;;17.30;99.90;;;;;;5056652;28;20759;-69
2021/08/28 11:58:52;;;;;;;0.40;0.20;;;17.20;99.90;;;;;;5056274;28;20446;-68
2021/08/28 12:01:37;;;;;;;0.40;0.20;;;17.20;99.90;;;;;;5056559;28;20426;-67
2021/08/28 12:04:07;;;;;;;0.40;0.20;;;17.40;99.90;;;;;;5056625;28;20431;-66
2021/08/28 12:06:36;;;;;;;0.83;0.20;;;17.70;99.90;;;;;;5056568;28;20545;-65
2021/08/28 12:09:04;;;;;;;0.70;0.50;;;17.90;99.90;;;;;;5056623;28;20446;-65
2021/08/28 12:11:30;;;;;;;1.60;1.13;;;17.80;99.90;;;;;;5056594;28;20423;-65
2021/08/28 12:13:58;;;;;;;0.40;0.10;;;17.70;99.90;;;;;;5056234;28;20415;-65
2021/08/28 12:16:43;;;;;;;0.40;0.20;;;17.50;99.90;;;;;;5056447;28;20427;-64
2021/08/28 12:19:13;;;;;;;0.73;0.40;;;17.30;99.90;;;;;;5056272;28;20891;-64
2021/08/28 12:21:41;;;;;;;0.40;0.20;;;17.20;99.90;;;;;;5056175;28;20939;-64
2021/08/28 12:24:13;;;;;;;0.40;0.20;;;17.00;99.90;;;;;;5056097;28;20548;-64
2021/08/28 12:26:40;;;;;;;0.60;0.30;;;17.10;99.90;;;;;;5058937;28;20422;-67
2021/08/28 12:29:06;;;;;;;0.40;0.20;;;17.00;99.90;;;;;;5074786;28;20422;-65
2021/08/28 12:31:32;;;;;;;0.40;0.20;;;16.90;99.90;;;;;;5075138;28;20980;-64
2021/08/28 12:34:20;;;;;;;0.40;0.20;;;16.80;99.90;;;;;;5076105;28;20735;-65
2021/08/28 12:36:46;;;;;;;0.40;0.20;;;16.60;99.90;;;;;;5076250;28;20172;-64
2021/08/28 12:39:13;;;;;;;0.60;0.60;;;16.40;99.90;;;;;;5075825;28;20497;-64
2021/08/28 12:41:40;;;;;;;0.40;0.10;;;16.20;99.90;;;;;;5060113;28;20594;-64
2021/08/28 12:44:07;;;;;;;0.40;0.20;;;16.30;99.90;;;;;;5055806;28;20908;-64
2021/08/28 12:46:34;;;;;;;0.40;0.20;;;16.30;99.90;;;;;;5040799;28;20505;-64
2021/08/28 12:49:22;;;;;;;0.70;0.53;;;16.40;99.90;;;;;;5036535;28;20426;-65
2021/08/28 12:52:01;;;;;;;0.40;0.20;;;16.40;99.90;;;;;;5045543;28;20441;-65